Time;durP1;ratioP1;P1;durP2;ratioP2;P2;SDS_P1;SDS_P2;PMS_P1;PMS_P2;Temp;Humidity;BMP_temperature;BMP_pressure;BME280_temperature;BME280_humidity;BME280_pressure;Samples;Min_cycle;Max_cycle;Signal;HPM_P1;HPM_P2
2021/12/24 00:01:10;;;;;;;26.73;9.88;;;10.30;99.90;;;;;;4953658;29;20027;-70
2021/12/24 00:03:36;;;;;;;28.85;9.73;;;10.40;99.90;;;;;;4953598;29;20074;-70
2021/12/24 00:06:03;;;;;;;27.98;10.07;;;10.40;99.90;;;;;;4953728;29;20038;-71
2021/12/24 00:08:30;;;;;;;22.52;8.77;;;10.50;99.90;;;;;;4951886;29;20034;-71
2021/12/24 00:11:00;;;;;;;29.98;9.20;;;10.50;99.90;;;;;;4951661;29;20065;-71
2021/12/24 00:13:29;;;;;;;26.08;9.93;;;10.60;99.90;;;;;;4952715;29;20034;-71
2021/12/24 00:37:13;;;;;;;41.10;14.75;;;10.90;99.90;;;;;;4954695;29;20158;-69
2021/12/24 00:39:50;;;;;;;40.72;14.00;;;10.90;99.90;;;;;;4954579;29;20122;-71
2021/12/24 00:42:15;;;;;;;42.15;14.57;;;10.90;99.90;;;;;;4954656;29;20467;-72
2021/12/24 00:44:41;;;;;;;43.45;14.38;;;10.90;99.90;;;;;;4954798;29;20051;-70
2021/12/24 00:47:07;;;;;;;47.45;14.23;;;10.90;99.90;;;;;;4954360;29;20027;-72
2021/12/24 00:49:32;;;;;;;46.03;14.65;;;10.90;99.90;;;;;;4954637;29;20042;-71
2021/12/24 00:57:25;;;;;;;43.88;13.98;;;10.90;99.90;;;;;;4958011;29;20110;-71
2021/12/24 00:59:51;;;;;;;46.92;15.63;;;11.00;99.90;;;;;;4957609;28;20126;-71
2021/12/24 01:02:17;;;;;;;43.53;15.40;;;11.00;99.90;;;;;;4956303;29;20524;-71
2021/12/24 01:04:42;;;;;;;35.85;13.63;;;11.00;99.90;;;;;;4956448;29;20039;-71
2021/12/24 01:07:09;;;;;;;44.78;14.40;;;11.00;99.90;;;;;;4956240;29;20051;-71
2021/12/24 01:09:35;;;;;;;46.28;15.13;;;11.00;99.90;;;;;;4956413;29;20034;-71
2021/12/24 01:12:01;;;;;;;38.83;14.82;;;11.00;99.90;;;;;;4956388;29;20023;-70
2021/12/24 01:14:28;;;;;;;44.72;14.55;;;11.00;99.90;;;;;;4956354;29;20115;-71
2021/12/24 01:17:14;;;;;;;49.92;14.52;;;11.00;99.90;;;;;;4956497;29;20035;-72
2021/12/24 01:19:42;;;;;;;35.58;13.25;;;11.00;99.90;;;;;;4956453;29;20114;-70
2021/12/24 01:24:47;;;;;;;36.95;14.50;;;10.90;99.90;;;;;;4956210;29;20035;-71
2021/12/24 01:29:59;;;;;;;38.63;13.07;;;11.00;99.90;;;;;;4953636;29;20028;-73
2021/12/24 01:42:40;;;;;;;33.35;12.25;;;10.90;99.90;;;;;;4954947;29;20047;-72
2021/12/24 01:43:14;;;;;;;39.30;11.52;;;10.90;99.90;;;;;;4948419;29;20479;-72
2021/12/24 01:45:47;;;;;;;38.75;12.00;;;11.00;99.90;;;;;;4955817;29;20035;-71
2021/12/24 01:48:13;;;;;;;31.98;11.20;;;11.00;99.90;;;;;;4955834;29;20475;-72
2021/12/24 01:50:45;;;;;;;36.25;11.75;;;11.00;99.90;;;;;;4955667;29;20117;-71
2021/12/24 01:53:13;;;;;;;35.83;11.35;;;11.00;99.90;;;;;;4955878;29;20102;-69
2021/12/24 01:55:40;;;;;;;31.42;9.63;;;11.00;99.90;;;;;;4955567;29;20039;-70
2021/12/24 01:58:06;;;;;;;34.58;9.77;;;11.00;99.90;;;;;;4953141;29;20098;-70
2021/12/24 02:00:38;;;;;;;33.42;9.35;;;11.00;99.90;;;;;;4955361;29;20487;-73
2021/12/24 02:03:07;;;;;;;38.33;9.95;;;11.00;99.90;;;;;;4938488;29;20103;-72
2021/12/24 02:05:32;;;;;;;28.88;9.05;;;11.00;99.90;;;;;;4938322;29;20032;-72
2021/12/24 02:07:59;;;;;;;34.10;10.00;;;11.00;99.90;;;;;;4955441;29;20034;-72
2021/12/24 02:10:25;;;;;;;33.40;9.52;;;11.00;99.90;;;;;;4956194;29;20185;-72
2021/12/24 02:12:52;;;;;;;29.67;10.55;;;11.00;99.90;;;;;;4955962;29;20031;-73
2021/12/24 02:28:40;;;;;;;27.58;8.93;;;10.90;99.90;;;;;;4956662;29;20100;-72
2021/12/24 02:31:10;;;;;;;32.55;9.73;;;10.90;99.90;;;;;;4955116;29;20035;-71
2021/12/24 02:33:36;;;;;;;28.90;9.15;;;10.90;99.90;;;;;;4956650;29;20091;-70
2021/12/24 02:36:03;;;;;;;29.75;9.88;;;10.90;99.90;;;;;;4956477;29;20118;-72
2021/12/24 02:38:28;;;;;;;36.63;10.60;;;10.90;99.90;;;;;;4938859;29;20140;-72
2021/12/24 02:40:54;;;;;;;29.20;9.40;;;10.90;99.90;;;;;;4956230;29;20103;-71
2021/12/24 02:43:22;;;;;;;35.78;9.75;;;10.80;99.90;;;;;;4956301;29;20060;-72
2021/12/24 02:45:51;;;;;;;26.38;9.30;;;10.80;99.90;;;;;;4956320;29;20031;-72
2021/12/24 02:56:37;;;;;;;32.67;9.45;;;10.80;99.90;;;;;;4933709;29;20043;-72
2021/12/24 02:59:11;;;;;;;26.90;9.25;;;10.80;99.90;;;;;;4955934;29;20075;-71
2021/12/24 03:01:39;;;;;;;28.00;9.48;;;10.80;99.90;;;;;;4955884;29;20085;-72
2021/12/24 03:04:06;;;;;;;35.15;9.75;;;10.80;99.90;;;;;;4956252;29;20055;-70
2021/12/24 03:06:34;;;;;;;29.38;10.00;;;10.80;99.90;;;;;;4955936;29;20023;-72
2021/12/24 03:09:00;;;;;;;31.52;9.70;;;10.80;99.90;;;;;;4955642;29;20027;-72
2021/12/24 03:11:26;;;;;;;29.13;9.82;;;10.80;99.90;;;;;;4955324;29;20130;-71
2021/12/24 03:13:53;;;;;;;29.88;9.82;;;10.80;99.90;;;;;;4955697;29;20114;-71
2021/12/24 03:16:20;;;;;;;35.95;9.95;;;10.80;99.90;;;;;;4955229;28;20489;-72
2021/12/24 03:18:46;;;;;;;30.95;9.38;;;10.80;99.90;;;;;;4955658;29;20423;-71
2021/12/24 03:21:17;;;;;;;25.65;9.00;;;10.80;99.90;;;;;;4955630;29;20055;-72
2021/12/24 03:24:33;;;;;;;30.27;9.73;;;10.90;99.90;;;;;;4955380;29;20451;-70
2021/12/24 03:26:39;;;;;;;34.05;9.68;;;10.90;99.90;;;;;;4954948;29;20086;-71
2021/12/24 03:29:06;;;;;;;31.92;9.40;;;10.80;99.90;;;;;;4955452;29;20023;-71
2021/12/24 03:31:34;;;;;;;33.72;9.10;;;10.80;99.90;;;;;;4955770;29;20024;-71
2021/12/24 03:34:00;;;;;;;34.55;9.93;;;10.70;99.90;;;;;;4955264;29;20031;-72
2021/12/24 03:36:27;;;;;;;30.58;9.60;;;10.70;99.90;;;;;;4955189;29;20035;-70
2021/12/24 03:38:53;;;;;;;27.92;9.20;;;10.60;99.90;;;;;;4955218;29;20033;-71
2021/12/24 03:41:19;;;;;;;31.83;9.57;;;10.50;99.90;;;;;;4955013;29;20023;-72
2021/12/24 03:43:45;;;;;;;31.85;9.20;;;10.50;99.90;;;;;;4955275;29;20036;-72
2021/12/24 03:46:15;;;;;;;29.08;8.30;;;10.40;99.90;;;;;;4955079;29;20038;-70
2021/12/24 03:48:54;;;;;;;34.97;8.75;;;10.30;99.90;;;;;;4955071;29;20027;-72
2021/12/24 03:56:32;;;;;;;27.58;8.23;;;10.20;99.90;;;;;;4954838;29;20031;-71
2021/12/24 03:58:59;;;;;;;27.85;7.45;;;10.20;99.90;;;;;;4954886;28;20083;-72
2021/12/24 04:01:25;;;;;;;29.05;7.90;;;10.20;99.90;;;;;;4954757;29;20031;-71
2021/12/24 04:03:52;;;;;;;33.92;7.78;;;10.20;99.90;;;;;;4937462;29;20023;-71
2021/12/24 04:06:18;;;;;;;27.42;7.28;;;10.20;99.90;;;;;;4954695;29;20035;-71
2021/12/24 04:08:44;;;;;;;31.85;8.38;;;10.20;99.90;;;;;;4954624;29;20031;-72
2021/12/24 04:11:10;;;;;;;30.23;7.97;;;10.20;99.90;;;;;;4954553;29;20035;-70
2021/12/24 04:13:36;;;;;;;30.02;6.72;;;10.20;99.90;;;;;;4954588;29;20131;-72
2021/12/24 04:16:02;;;;;;;41.35;8.65;;;10.20;99.90;;;;;;4954807;29;20118;-72
2021/12/24 04:26:24;;;;;;;24.42;6.50;;;10.30;99.90;;;;;;4954714;29;20379;-72
2021/12/24 04:28:49;;;;;;;32.47;6.18;;;10.30;99.90;;;;;;4953905;28;20464;-70
2021/12/24 04:31:17;;;;;;;22.05;6.10;;;10.30;99.90;;;;;;4954141;29;20035;-70
2021/12/24 04:33:47;;;;;;;25.85;5.63;;;10.30;99.90;;;;;;4954426;29;20060;-72
2021/12/24 04:39:34;;;;;;;28.23;5.95;;;10.30;99.90;;;;;;4949731;29;20044;-71
2021/12/24 04:53:25;;;;;;;20.65;5.30;;;9.90;99.90;;;;;;4954170;29;20035;-71
2021/12/24 05:04:01;;;;;;;30.10;5.55;;;9.70;99.90;;;;;;4932677;29;20036;-72
2021/12/24 05:06:33;;;;;;;27.92;6.32;;;9.70;99.90;;;;;;4932581;29;20029;-72
2021/12/24 05:09:06;;;;;;;34.13;7.43;;;9.70;99.90;;;;;;4944048;29;20043;-71
2021/12/24 05:11:31;;;;;;;23.75;5.70;;;9.60;99.90;;;;;;4952741;29;20028;-72
2021/12/24 05:13:57;;;;;;;23.48;4.85;;;9.60;99.90;;;;;;4954122;29;20090;-71
2021/12/24 05:21:35;;;;;;;30.83;6.82;;;9.50;99.90;;;;;;4954203;29;20150;-71
2021/12/24 05:24:12;;;;;;;28.52;6.07;;;9.50;99.90;;;;;;4954196;29;20375;-71
2021/12/24 05:26:42;;;;;;;31.45;5.78;;;9.50;99.90;;;;;;4954283;29;20031;-72
2021/12/24 05:29:08;;;;;;;27.35;4.78;;;9.40;99.90;;;;;;4953779;29;20736;-71
2021/12/24 05:31:34;;;;;;;29.27;5.53;;;9.40;99.90;;;;;;4954162;29;20046;-72
2021/12/24 05:34:03;;;;;;;28.25;5.80;;;9.40;99.90;;;;;;4936660;29;20118;-70
2021/12/24 05:36:28;;;;;;;29.55;5.43;;;9.40;99.90;;;;;;4953718;29;20522;-72
2021/12/24 05:38:54;;;;;;;26.30;6.57;;;9.40;99.90;;;;;;4954380;28;20023;-71
2021/12/24 05:41:21;;;;;;;24.52;5.57;;;9.40;99.90;;;;;;4957522;29;20023;-71
2021/12/24 05:43:47;;;;;;;25.05;5.53;;;9.40;99.90;;;;;;4957243;29;20106;-72
2021/12/24 05:46:13;;;;;;;34.47;5.80;;;9.40;99.90;;;;;;4956906;29;20027;-71
2021/12/24 05:48:39;;;;;;;30.13;5.13;;;9.40;99.90;;;;;;4957395;29;20031;-71
2021/12/24 05:51:04;;;;;;;26.08;4.82;;;9.40;99.90;;;;;;4957516;29;20075;-72
2021/12/24 05:53:30;;;;;;;34.83;6.53;;;9.40;99.90;;;;;;4957156;29;20090;-72
2021/12/24 05:55:56;;;;;;;26.60;4.28;;;9.40;99.90;;;;;;4957134;29;20043;-71
2021/12/24 05:58:22;;;;;;;23.17;3.78;;;9.40;99.90;;;;;;4957310;29;20118;-71
2021/12/24 06:00:48;;;;;;;30.30;5.15;;;9.30;99.90;;;;;;4956847;29;20459;-70
2021/12/24 06:03:15;;;;;;;23.00;4.63;;;9.40;99.90;;;;;;4940002;29;20034;-71
2021/12/24 06:05:41;;;;;;;32.78;5.63;;;9.30;99.90;;;;;;4957191;29;20090;-69
2021/12/24 06:08:07;;;;;;;27.50;5.57;;;9.30;99.90;;;;;;4957138;29;20034;-70
2021/12/24 06:10:34;;;;;;;20.52;4.45;;;9.30;99.90;;;;;;4956901;29;20028;-69
2021/12/24 06:13:00;;;;;;;26.65;4.72;;;9.30;99.90;;;;;;4957018;29;20027;-71
2021/12/24 06:15:27;;;;;;;21.27;4.15;;;9.30;99.90;;;;;;4956496;29;20469;-70
2021/12/24 06:17:56;;;;;;;27.30;4.95;;;9.30;99.90;;;;;;4956912;29;20055;-71
2021/12/24 06:20:24;;;;;;;41.47;6.93;;;9.30;99.90;;;;;;4956836;29;20023;-71
2021/12/24 06:22:49;;;;;;;32.42;5.18;;;9.30;99.90;;;;;;4956801;29;20023;-71
2021/12/24 06:25:17;;;;;;;31.92;5.70;;;9.30;99.90;;;;;;4955546;29;20434;-70
2021/12/24 06:27:44;;;;;;;30.15;4.75;;;9.40;99.90;;;;;;4956413;29;20027;-71
2021/12/24 06:30:10;;;;;;;26.50;4.63;;;9.30;99.90;;;;;;4956463;29;20031;-68
2021/12/24 06:32:36;;;;;;;28.02;5.18;;;9.30;99.90;;;;;;4956617;29;20028;-71
2021/12/24 06:35:03;;;;;;;24.65;4.70;;;9.30;99.90;;;;;;4956478;29;20039;-70
2021/12/24 06:37:29;;;;;;;26.33;5.10;;;9.30;99.90;;;;;;4956490;29;20109;-70
2021/12/24 06:39:55;;;;;;;25.17;4.32;;;9.30;99.90;;;;;;4956569;29;20087;-70
2021/12/24 06:42:21;;;;;;;31.30;4.95;;;9.30;99.90;;;;;;4956360;29;20033;-70
2021/12/24 06:44:47;;;;;;;29.15;4.85;;;9.30;99.90;;;;;;4956145;29;20034;-72
2021/12/24 06:47:13;;;;;;;32.58;5.53;;;9.30;99.90;;;;;;4956163;29;20027;-69
2021/12/24 06:49:39;;;;;;;26.75;4.70;;;9.30;99.90;;;;;;4956349;29;20085;-72
2021/12/24 06:52:05;;;;;;;35.08;4.88;;;9.30;99.90;;;;;;4955588;28;20051;-70
2021/12/24 06:54:33;;;;;;;32.17;4.68;;;9.30;99.90;;;;;;4954840;29;20094;-71
2021/12/24 06:56:59;;;;;;;29.50;5.90;;;9.30;99.90;;;;;;4955707;29;20027;-71
2021/12/24 06:59:25;;;;;;;24.42;4.57;;;9.30;99.90;;;;;;4956047;29;20454;-72
2021/12/24 07:01:51;;;;;;;27.80;5.05;;;9.30;99.90;;;;;;4956162;29;20057;-72
2021/12/24 07:04:16;;;;;;;27.90;4.35;;;9.30;99.90;;;;;;4938879;29;20038;-72
2021/12/24 07:06:45;;;;;;;38.40;5.72;;;9.30;99.90;;;;;;4956041;29;20090;-71
2021/12/24 07:09:12;;;;;;;26.30;5.00;;;9.30;99.90;;;;;;4955940;29;20023;-72
2021/12/24 07:11:39;;;;;;;32.28;5.10;;;9.40;99.90;;;;;;4955797;29;20024;-70
2021/12/24 07:14:04;;;;;;;23.95;5.10;;;9.40;99.90;;;;;;4955599;29;20054;-71
2021/12/24 07:16:30;;;;;;;26.10;5.35;;;9.50;99.90;;;;;;4954574;29;20471;-69
2021/12/24 07:18:55;;;;;;;38.33;5.53;;;9.60;99.90;;;;;;4955630;29;20113;-70
2021/12/24 07:21:21;;;;;;;23.02;5.72;;;9.60;99.90;;;;;;4953884;29;20027;-68
2021/12/24 07:23:47;;;;;;;26.15;4.90;;;9.70;99.90;;;;;;4937929;29;20027;-71
2021/12/24 07:26:13;;;;;;;23.73;5.20;;;9.70;99.90;;;;;;4949341;28;20030;-69
2021/12/24 07:28:38;;;;;;;18.58;5.18;;;9.70;99.90;;;;;;4954484;28;20364;-68
2021/12/24 07:31:04;;;;;;;23.98;4.63;;;9.80;99.90;;;;;;4954159;28;20027;-70
2021/12/24 07:33:29;;;;;;;23.25;4.93;;;9.80;99.90;;;;;;4954235;29;20035;-71
2021/12/24 07:35:55;;;;;;;26.40;5.13;;;9.90;99.90;;;;;;4954178;28;20487;-71
2021/12/24 07:38:21;;;;;;;23.63;4.57;;;9.90;99.90;;;;;;4944164;29;20038;-71
2021/12/24 07:40:48;;;;;;;28.15;5.40;;;10.00;99.90;;;;;;4953907;28;20035;-70
2021/12/24 07:43:14;;;;;;;20.13;4.13;;;10.00;99.90;;;;;;4954127;28;20490;-70
2021/12/24 07:45:41;;;;;;;21.02;4.50;;;10.00;99.90;;;;;;4954070;28;20031;-71
2021/12/24 07:48:15;;;;;;;23.92;4.15;;;10.10;99.90;;;;;;4954974;28;20062;-71
2021/12/24 07:53:13;;;;;;;25.60;4.22;;;10.10;99.90;;;;;;4954841;29;20420;-72
2021/12/24 07:55:40;;;;;;;22.90;4.32;;;10.10;99.90;;;;;;4937775;29;20447;-71
2021/12/24 07:58:07;;;;;;;25.55;5.30;;;10.10;99.90;;;;;;4954795;29;20031;-69
2021/12/24 08:00:36;;;;;;;29.63;5.28;;;10.20;99.90;;;;;;4955016;29;20051;-71
2021/12/24 08:03:03;;;;;;;29.35;4.90;;;10.20;99.90;;;;;;4954789;28;20106;-71
2021/12/24 08:05:29;;;;;;;27.75;4.70;;;10.20;99.90;;;;;;4954903;29;20050;-71
2021/12/24 08:07:55;;;;;;;24.95;3.90;;;10.20;99.90;;;;;;4937465;29;20056;-71
2021/12/24 08:10:24;;;;;;;35.45;5.10;;;10.20;99.90;;;;;;4954811;29;20472;-71
2021/12/24 08:12:50;;;;;;;28.60;4.45;;;10.20;99.90;;;;;;4951205;28;20027;-69
2021/12/24 08:15:17;;;;;;;27.58;4.38;;;10.30;99.90;;;;;;4947238;28;20047;-70
2021/12/24 08:17:44;;;;;;;33.03;4.13;;;10.30;99.90;;;;;;4938295;28;20059;-72
2021/12/24 08:20:11;;;;;;;22.95;4.57;;;10.30;99.90;;;;;;4954167;29;20031;-71
2021/12/24 08:22:37;;;;;;;21.75;4.50;;;10.30;99.90;;;;;;4954641;29;20062;-72
2021/12/24 08:25:08;;;;;;;24.95;4.05;;;10.40;99.90;;;;;;4954636;29;20065;-71
2021/12/24 08:27:38;;;;;;;27.60;4.47;;;10.40;99.90;;;;;;4954622;29;20031;-72
2021/12/24 08:30:06;;;;;;;34.50;4.75;;;10.40;99.90;;;;;;4954494;29;20053;-69
2021/12/24 08:32:37;;;;;;;23.92;3.88;;;10.40;99.90;;;;;;4953602;29;20031;-70
2021/12/24 08:35:04;;;;;;;28.90;5.03;;;10.40;99.90;;;;;;4954241;29;20146;-72
2021/12/24 08:37:30;;;;;;;31.73;4.53;;;10.40;99.90;;;;;;4954062;29;20089;-70
2021/12/24 08:39:56;;;;;;;28.30;5.18;;;10.40;99.90;;;;;;4954390;29;20158;-72
2021/12/24 08:42:22;;;;;;;25.77;4.03;;;10.50;99.90;;;;;;4954638;29;20125;-70
2021/12/24 08:44:47;;;;;;;26.10;4.28;;;10.50;99.90;;;;;;4954299;29;20717;-71
2021/12/24 08:47:13;;;;;;;35.65;5.53;;;10.50;99.90;;;;;;4950771;28;20116;-71
2021/12/24 08:49:38;;;;;;;22.20;4.30;;;10.50;99.90;;;;;;4953031;28;20031;-70
2021/12/24 08:52:04;;;;;;;32.20;4.45;;;10.50;99.90;;;;;;4953293;28;20034;-72
2021/12/24 08:54:30;;;;;;;25.42;4.90;;;10.50;99.90;;;;;;4953251;28;20028;-71
2021/12/24 08:56:56;;;;;;;23.98;4.05;;;10.50;99.90;;;;;;4952944;28;20067;-71
2021/12/24 08:59:23;;;;;;;26.67;6.93;;;10.50;99.90;;;;;;4952793;28;20054;-70
2021/12/24 09:01:49;;;;;;;27.00;5.20;;;10.60;99.90;;;;;;4955794;28;20031;-71
2021/12/24 09:04:15;;;;;;;24.33;5.25;;;10.50;99.90;;;;;;4953198;28;20063;-71
2021/12/24 09:06:41;;;;;;;27.10;4.90;;;10.50;99.90;;;;;;4952997;28;20126;-71
2021/12/24 09:09:08;;;;;;;28.08;6.00;;;10.50;99.90;;;;;;4952946;29;20027;-72
2021/12/24 09:11:34;;;;;;;26.08;4.60;;;10.50;99.90;;;;;;4941136;28;20118;-70
2021/12/24 09:14:00;;;;;;;32.88;6.13;;;10.50;99.90;;;;;;4953623;28;20063;-71
2021/12/24 09:16:26;;;;;;;28.63;5.72;;;10.50;99.90;;;;;;4956882;28;20062;-71
2021/12/24 09:19:00;;;;;;;28.67;6.35;;;10.50;99.90;;;;;;4955055;28;20038;-72
2021/12/24 09:21:26;;;;;;;21.38;4.03;;;10.50;99.90;;;;;;4955847;29;20031;-71
2021/12/24 09:23:54;;;;;;;24.52;5.53;;;10.40;99.90;;;;;;4961413;28;20035;-71
2021/12/24 09:26:27;;;;;;;22.38;4.57;;;10.40;99.90;;;;;;4956653;28;20019;-72
2021/12/24 09:28:53;;;;;;;24.90;4.10;;;10.40;99.90;;;;;;4955861;28;20114;-72
2021/12/24 09:31:18;;;;;;;26.60;4.57;;;10.40;99.90;;;;;;4956374;29;20118;-71
2021/12/24 09:33:44;;;;;;;25.02;4.78;;;10.40;99.90;;;;;;4956342;28;20024;-71
2021/12/24 09:36:10;;;;;;;26.45;4.88;;;10.40;99.90;;;;;;4960545;28;20098;-71
2021/12/24 09:38:36;;;;;;;27.38;5.05;;;10.40;99.90;;;;;;4956814;28;20028;-70
2021/12/24 09:41:02;;;;;;;24.08;5.80;;;10.40;99.90;;;;;;4956639;29;20050;-72
2021/12/24 09:43:27;;;;;;;26.77;4.78;;;10.40;99.90;;;;;;4956726;28;20477;-72
2021/12/24 09:45:53;;;;;;;25.58;5.00;;;10.40;99.90;;;;;;4956780;29;20106;-70
2021/12/24 09:48:19;;;;;;;24.33;4.25;;;10.50;99.90;;;;;;4956811;28;20070;-72
2021/12/24 09:50:45;;;;;;;24.77;4.47;;;10.60;99.90;;;;;;4957291;29;20443;-70
2021/12/24 09:53:11;;;;;;;28.23;5.45;;;10.60;99.90;;;;;;4957066;29;20038;-71
2021/12/24 09:55:37;;;;;;;28.50;6.45;;;10.70;99.90;;;;;;4956743;29;20113;-70
2021/12/24 09:58:03;;;;;;;21.42;4.55;;;10.70;99.90;;;;;;4957033;29;20459;-70
2021/12/24 10:00:29;;;;;;;28.45;5.55;;;10.70;99.90;;;;;;4942236;28;20050;-71
2021/12/24 10:02:57;;;;;;;24.95;4.75;;;10.80;99.90;;;;;;4959027;28;20023;-71
2021/12/24 10:05:26;;;;;;;23.70;5.10;;;10.80;99.90;;;;;;4959253;28;20114;-70
2021/12/24 10:07:57;;;;;;;25.52;4.28;;;10.80;99.90;;;;;;4945259;29;20031;-70
2021/12/24 10:10:25;;;;;;;23.98;4.80;;;10.80;99.90;;;;;;4956391;28;20031;-72
2021/12/24 10:12:52;;;;;;;30.63;5.20;;;10.90;99.90;;;;;;4956561;29;20039;-71
2021/12/24 10:15:18;;;;;;;26.63;5.90;;;10.90;99.90;;;;;;4956846;29;20129;-71
2021/12/24 10:17:45;;;;;;;24.52;4.68;;;11.00;99.90;;;;;;4956590;29;20070;-70
2021/12/24 10:20:16;;;;;;;21.80;4.47;;;11.00;99.90;;;;;;4956584;29;20459;-70
2021/12/24 10:22:54;;;;;;;23.65;4.30;;;11.00;99.90;;;;;;4956241;29;20023;-70
2021/12/24 10:25:29;;;;;;;23.77;6.18;;;11.10;99.90;;;;;;4955602;28;20035;-71
2021/12/24 10:27:56;;;;;;;22.98;5.38;;;11.10;99.90;;;;;;4956570;29;20357;-72
2021/12/24 10:30:27;;;;;;;24.30;5.68;;;11.00;99.90;;;;;;4956381;29;20102;-71
2021/12/24 10:32:55;;;;;;;32.33;6.10;;;11.00;99.90;;;;;;4956585;29;20068;-70
2021/12/24 10:35:27;;;;;;;20.88;5.05;;;10.90;99.90;;;;;;4955057;29;20780;-71
2021/12/24 10:38:20;;;;;;;27.33;5.32;;;10.90;99.90;;;;;;4956105;29;20506;-72
2021/12/24 10:40:54;;;;;;;;;;;10.80;99.90;;;;;;4954287;29;20027;-72
2021/12/24 10:43:25;;;;;;;28.52;6.35;;;10.80;99.90;;;;;;4955184;29;20383;-71
2021/12/24 10:46:15;;;;;;;27.05;5.57;;;10.80;99.90;;;;;;4956324;29;20027;-70
2021/12/24 10:49:01;;;;;;;27.55;5.18;;;10.80;99.90;;;;;;4938875;29;20470;-71
2021/12/24 10:51:54;;;;;;;33.72;5.38;;;10.80;99.90;;;;;;4955528;29;20054;-70
2021/12/24 10:54:20;;;;;;;22.17;5.30;;;10.80;99.90;;;;;;4954944;29;20035;-72
2021/12/24 10:56:46;;;;;;;25.70;5.22;;;10.80;99.90;;;;;;4955497;29;20035;-71
2021/12/24 10:59:12;;;;;;;22.75;5.15;;;10.80;99.90;;;;;;4955375;29;20080;-71
2021/12/24 11:01:38;;;;;;;30.98;5.55;;;10.80;99.90;;;;;;4955763;29;20102;-70
2021/12/24 11:04:04;;;;;;;27.70;5.80;;;10.80;99.90;;;;;;4955665;29;20050;-71
2021/12/24 11:06:32;;;;;;;19.85;5.28;;;10.70;99.90;;;;;;4955891;29;20453;-72
2021/12/24 11:08:59;;;;;;;28.70;6.00;;;10.70;99.90;;;;;;4955792;29;20039;-71
2021/12/24 11:11:32;;;;;;;29.65;6.40;;;10.70;99.90;;;;;;4955535;29;20023;-71
2021/12/24 11:13:57;;;;;;;26.67;5.70;;;10.70;99.90;;;;;;4955726;29;20066;-71
2021/12/24 11:16:23;;;;;;;21.20;6.18;;;10.70;99.90;;;;;;4955463;29;20074;-71
2021/12/24 11:19:01;;;;;;;24.40;5.72;;;10.70;99.90;;;;;;4955305;29;20038;-70
2021/12/24 11:21:29;;;;;;;26.48;6.43;;;10.60;99.90;;;;;;4954996;29;20382;-69
2021/12/24 11:23:55;;;;;;;25.83;6.13;;;10.60;99.90;;;;;;4955506;29;20031;-70
2021/12/24 11:26:27;;;;;;;23.25;6.90;;;10.60;99.90;;;;;;4955117;29;20082;-70
2021/12/24 11:28:54;;;;;;;25.77;5.85;;;10.70;99.90;;;;;;4955282;29;20035;-69
2021/12/24 11:31:23;;;;;;;28.42;6.45;;;10.70;99.90;;;;;;4955452;29;20044;-72
2021/12/24 11:33:52;;;;;;;30.27;5.30;;;10.70;99.90;;;;;;4955291;29;20067;-71
2021/12/24 11:36:22;;;;;;;22.15;5.13;;;10.70;99.90;;;;;;4955287;28;20063;-72
2021/12/24 11:38:53;;;;;;;22.83;7.45;;;10.70;99.90;;;;;;4955194;29;20035;-71
2021/12/24 11:41:20;;;;;;;19.00;5.10;;;10.70;99.90;;;;;;4955168;29;20046;-70
2021/12/24 11:43:48;;;;;;;31.05;6.10;;;10.60;99.90;;;;;;4955083;29;20102;-71
2021/12/24 11:46:16;;;;;;;24.45;6.18;;;10.60;99.90;;;;;;4954786;29;20555;-72
2021/12/24 11:48:44;;;;;;;23.75;6.85;;;10.60;99.90;;;;;;4954553;29;20026;-72
2021/12/24 11:51:19;;;;;;;23.08;6.35;;;10.60;99.90;;;;;;4955236;29;20019;-72
2021/12/24 11:53:45;;;;;;;27.98;6.70;;;10.60;99.90;;;;;;4955014;29;20105;-71
2021/12/24 11:56:15;;;;;;;25.02;6.45;;;10.70;99.90;;;;;;4953683;28;20456;-72
2021/12/24 11:58:48;;;;;;;31.88;7.78;;;10.60;99.90;;;;;;4954514;28;20019;-70
2021/12/24 12:01:16;;;;;;;28.75;6.80;;;10.70;99.90;;;;;;4954582;28;20094;-71
2021/12/24 12:03:52;;;;;;;29.42;7.00;;;10.70;99.90;;;;;;4954309;28;20439;-71
2021/12/24 12:06:20;;;;;;;29.33;6.80;;;10.60;99.90;;;;;;4953245;28;20043;-70
2021/12/24 12:08:48;;;;;;;26.75;6.70;;;10.60;99.90;;;;;;4953930;29;20464;-72
2021/12/24 12:11:13;;;;;;;25.35;6.88;;;10.60;99.90;;;;;;4953841;28;20055;-72
2021/12/24 12:13:40;;;;;;;26.45;6.10;;;10.60;99.90;;;;;;4953994;29;20058;-70
2021/12/24 12:16:09;;;;;;;23.35;6.07;;;10.60;99.90;;;;;;4953632;28;20043;-70
2021/12/24 12:18:44;;;;;;;20.42;6.63;;;10.60;99.90;;;;;;4938611;29;20055;-72
2021/12/24 12:21:11;;;;;;;26.40;7.32;;;10.60;99.90;;;;;;4943939;29;20460;-69
2021/12/24 12:26:45;;;;;;;25.27;7.00;;;10.60;99.90;;;;;;4908124;29;20098;-70
2021/12/24 12:29:22;;;;;;;;;;;10.70;99.90;;;;;;4954408;28;20031;-70
2021/12/24 12:31:52;;;;;;;23.17;6.70;;;10.80;99.90;;;;;;4947816;29;19977;-70
2021/12/24 12:34:36;;;;;;;28.25;7.03;;;10.70;99.90;;;;;;4953155;28;20482;-70
2021/12/24 12:37:18;;;;;;;22.02;6.05;;;10.70;99.90;;;;;;4953980;29;20106;-70
2021/12/24 12:39:46;;;;;;;14.40;4.03;;;10.70;99.90;;;;;;4953519;28;20027;-72
2021/12/24 12:42:15;;;;;;;14.75;3.60;;;10.70;99.90;;;;;;4953570;29;20471;-71
2021/12/24 12:44:46;;;;;;;8.82;2.47;;;10.70;99.90;;;;;;4951808;28;20035;-72
2021/12/24 12:47:17;;;;;;;5.90;2.63;;;10.60;99.90;;;;;;4953693;29;20055;-72
2021/12/24 12:49:44;;;;;;;10.13;2.33;;;10.60;99.90;;;;;;4955720;28;20035;-72
2021/12/24 12:52:21;;;;;;;6.95;1.80;;;10.60;99.90;;;;;;4940621;29;20122;-72
2021/12/24 12:54:56;;;;;;;6.82;1.92;;;10.50;99.90;;;;;;4956993;29;20038;-72
2021/12/24 12:57:30;;;;;;;6.03;2.00;;;10.50;99.90;;;;;;4956580;28;20727;-72
2021/12/24 13:00:08;;;;;;;5.63;1.85;;;10.50;99.90;;;;;;4955793;28;20066;-71
2021/12/24 13:02:56;;;;;;;4.38;1.70;;;10.50;99.90;;;;;;4957722;28;20050;-71
2021/12/24 13:05:22;;;;;;;8.90;1.77;;;10.50;99.90;;;;;;4957929;29;20035;-70
2021/12/24 13:07:48;;;;;;;6.03;1.60;;;10.50;99.90;;;;;;4956882;28;20114;-69
2021/12/24 13:10:18;;;;;;;3.42;1.40;;;10.40;99.90;;;;;;4957055;29;20107;-69
2021/12/24 13:12:44;;;;;;;4.28;1.30;;;10.50;99.90;;;;;;4956072;28;20027;-70
2021/12/24 13:15:16;;;;;;;8.32;1.95;;;10.50;99.90;;;;;;4956927;28;20083;-71
2021/12/24 13:17:46;;;;;;;9.13;2.22;;;10.50;99.90;;;;;;4956137;28;20054;-71
2021/12/24 13:20:33;;;;;;;7.82;3.17;;;10.50;99.90;;;;;;4955918;29;20062;-71
2021/12/24 13:22:58;;;;;;;12.13;2.70;;;10.50;99.90;;;;;;4957793;28;20039;-70
2021/12/24 13:25:24;;;;;;;8.85;4.10;;;10.60;99.90;;;;;;4946973;29;20098;-71
2021/12/24 13:27:53;;;;;;;12.15;3.83;;;10.60;99.90;;;;;;4957005;28;20515;-72
2021/12/24 13:30:26;;;;;;;11.88;3.70;;;10.70;99.90;;;;;;4956809;29;20031;-70
2021/12/24 13:32:53;;;;;;;7.97;4.03;;;10.70;99.90;;;;;;4949479;28;20028;-70
2021/12/24 13:35:28;;;;;;;15.05;4.80;;;10.70;99.90;;;;;;4956551;28;20035;-71
2021/12/24 13:37:55;;;;;;;12.80;4.53;;;10.80;99.90;;;;;;4948852;28;20042;-71
2021/12/24 13:40:32;;;;;;;13.77;4.05;;;10.70;99.90;;;;;;4947754;29;20070;-70
2021/12/24 13:43:04;;;;;;;11.95;4.10;;;10.70;99.90;;;;;;4947106;29;20068;-70
2021/12/24 13:45:34;;;;;;;12.57;4.15;;;10.70;99.90;;;;;;4955534;28;20454;-71
2021/12/24 13:48:08;;;;;;;12.07;3.90;;;10.60;99.90;;;;;;4976135;28;20058;-71
2021/12/24 13:56:42;;;;;;;15.77;6.68;;;10.50;99.90;;;;;;4951712;28;20557;-71
2021/12/24 13:59:10;;;;;;;15.75;5.15;;;10.40;99.90;;;;;;4948012;29;20039;-70
2021/12/24 14:01:38;;;;;;;16.83;5.35;;;10.40;99.90;;;;;;4956387;28;20023;-70
2021/12/24 14:04:05;;;;;;;14.65;4.60;;;10.40;99.90;;;;;;4956439;29;20431;-70
2021/12/24 14:06:44;;;;;;;19.50;5.72;;;10.30;99.90;;;;;;4939501;29;20027;-71
2021/12/24 14:09:33;;;;;;;15.35;4.60;;;10.30;99.90;;;;;;4955324;29;20077;-70
2021/12/24 14:12:01;;;;;;;22.20;4.95;;;10.30;99.90;;;;;;4956195;29;20054;-71
2021/12/24 14:15:27;;;;;;;15.80;5.22;;;10.30;99.90;;;;;;4956163;29;20113;-71
2021/12/24 14:22:23;;;;;;;21.83;5.10;;;10.20;99.90;;;;;;4945621;29;20040;-70
2021/12/24 14:24:56;;;;;;;16.08;5.05;;;10.10;99.90;;;;;;4937306;29;20040;-72
2021/12/24 14:27:24;;;;;;;19.58;3.70;;;10.10;99.90;;;;;;4937745;29;20056;-71
2021/12/24 14:30:00;;;;;;;14.50;3.95;;;10.10;99.90;;;;;;4955463;29;20039;-72
2021/12/24 14:32:35;;;;;;;17.70;3.95;;;10.00;99.90;;;;;;4956504;29;20019;-72
2021/12/24 14:35:24;;;;;;;15.68;3.67;;;10.00;99.90;;;;;;4956228;29;20034;-71
2021/12/24 14:38:10;;;;;;;13.07;3.90;;;10.00;99.90;;;;;;4956360;29;20046;-72
2021/12/24 14:40:37;;;;;;;17.05;3.70;;;10.00;99.90;;;;;;4956423;29;20100;-71
2021/12/24 14:43:17;;;;;;;13.30;3.22;;;10.00;99.90;;;;;;4956026;29;20482;-71
2021/12/24 14:45:48;;;;;;;10.25;2.40;;;10.00;99.90;;;;;;4956054;29;20031;-71